Terminal Aerodrome Forecast
Issued by NWS Milwaukee/Sullivan, WI

Home | Current Version | Previous Version | Text Only | Print | Product List | Glossary On
Versions: 1 2 3 4 5 6 7 8 9 10 11 12 13 14 15 16 17 18 19 20 21 22 23 24 25 26 27 28 29 30 31 32 33 34 35 36 37 38 39 40
000
FTUS43 KMKX 231846 AAA
TAFMKE
TAF AMD
KMKE 231846Z 2319/2424 32006KT P6SM BKN010 BKN017 OVC026
     FM232000 34005KT P6SM OVC010
     FM240400 32004KT 5SM BR BKN008
     FM241600 VRB03KT P6SM BKN010
     FM241800 11004KT P6SM BKN025
     FM241900 12005KT P6SM BKN040=

USA.gov is the U.S. government's official web portal to all federal, state and local government web resources and services.